Time;durP1;ratioP1;P1;durP2;ratioP2;P2;SDS_P1;SDS_P2;PMS_P1;PMS_P2;Temp;Humidity;BMP_temperature;BMP_pressure;BME280_temperature;BME280_humidity;BME280_pressure;Samples;Min_cycle;Max_cycle;Signal;HPM_P1;HPM_P2
2022/08/25 00:01:14;;;;;;;12.30;4.60;;;;;;;20.35;52.21;99976.21;109321;1274;23371;-69
2022/08/25 00:03:44;;;;;;;11.90;4.00;;;;;;;20.33;52.23;99973.98;109252;1274;138605;-70
2022/08/25 00:06:11;;;;;;;11.50;4.60;;;;;;;20.32;52.34;99975.02;109308;1274;23066;-70
2022/08/25 00:08:38;;;;;;;15.10;4.00;;;;;;;20.30;52.28;99976.10;109352;1274;139300;-69
2022/08/25 00:11:13;;;;;;;18.50;4.20;;;;;;;20.29;52.21;99973.80;109402;1274;22433;-70
2022/08/25 00:13:42;;;;;;;8.60;4.20;;;;;;;20.28;52.14;99976.98;109296;1274;138553;-70
2022/08/25 00:16:10;;;;;;;12.30;4.40;;;;;;;20.27;52.32;99978.17;109398;1274;23280;-70
2022/08/25 00:18:38;;;;;;;9.90;4.10;;;;;;;20.25;52.18;99977.04;109392;1274;23689;-70
2022/08/25 00:21:05;;;;;;;10.50;4.00;;;;;;;20.23;52.16;99980.57;109317;1274;138560;-70
2022/08/25 00:23:31;;;;;;;10.20;4.40;;;;;;;20.21;52.21;99977.62;109388;1274;22498;-70
2022/08/25 00:25:58;;;;;;;13.00;4.00;;;;;;;20.21;52.18;99974.75;109300;1274;139340;-70
2022/08/25 00:28:25;;;;;;;12.20;3.80;;;;;;;20.20;52.25;99976.45;109343;1274;22686;-70
2022/08/25 00:30:52;;;;;;;8.50;4.10;;;;;;;20.19;52.40;99976.48;109420;1274;23088;-70
2022/08/25 00:33:19;;;;;;;13.10;4.40;;;;;;;20.17;52.46;99978.45;109252;1274;137669;-70
2022/08/25 00:35:46;;;;;;;9.90;4.60;;;;;;;20.14;52.53;99975.27;109378;1274;22427;-70
2022/08/25 00:38:14;;;;;;;12.30;4.20;;;;;;;20.10;53.10;99973.71;109298;1274;137932;-70
2022/08/25 00:40:41;;;;;;;13.10;5.10;;;;;;;20.04;53.46;99972.33;109414;1274;22623;-70
2022/08/25 00:43:07;;;;;;;7.20;3.50;;;;;;;19.95;53.56;99975.80;109384;1274;23179;-70
2022/08/25 00:45:34;;;;;;;10.60;4.30;;;;;;;19.90;53.23;99976.15;109339;1274;138526;-69
2022/08/25 00:48:01;;;;;;;11.60;4.40;;;;;;;19.88;52.98;99976.75;109406;1274;22412;-70
2022/08/25 00:50:29;;;;;;;5.80;4.10;;;;;;;19.89;52.86;99973.70;109276;1274;138174;-70
2022/08/25 00:52:57;;;;;;;15.30;4.70;;;;;;;19.89;52.68;99972.48;109309;1274;22904;-70
2022/08/25 00:55:35;;;;;;;8.90;4.00;;;;;;;19.91;52.55;99973.32;109380;1274;23149;-70
2022/08/25 00:58:13;;;;;;;8.80;3.70;;;;;;;19.93;52.67;99975.48;109386;1274;23503;-69
2022/08/25 01:00:42;;;;;;;10.20;4.30;;;;;;;19.93;53.04;99973.09;109277;1274;23432;-70
2022/08/25 01:03:10;;;;;;;7.40;3.80;;;;;;;19.91;53.11;99976.60;109294;1274;137873;-69
2022/08/25 01:05:36;;;;;;;6.90;3.70;;;;;;;19.91;53.29;99974.82;109391;1274;23261;-69
2022/08/25 01:08:05;;;;;;;10.30;4.10;;;;;;;19.88;53.30;99976.48;109291;1274;137774;-69
2022/08/25 01:10:34;;;;;;;8.30;3.90;;;;;;;19.85;53.46;99977.14;109412;1274;23135;-69
2022/08/25 01:13:05;;;;;;;9.20;4.10;;;;;;;19.82;53.48;99975.65;109325;1274;22626;-67
2022/08/25 01:15:35;;;;;;;10.40;4.00;;;;;;;19.80;53.44;99971.27;109128;1274;139655;-69
2022/08/25 01:18:03;;;;;;;13.10;4.70;;;;;;;19.78;53.57;99969.80;109361;1274;22428;-69
2022/08/25 01:20:31;;;;;;;20.20;5.30;;;;;;;19.76;53.59;99971.73;109308;1274;137652;-69
2022/08/25 01:22:58;;;;;;;9.40;4.30;;;;;;;19.73;53.43;99965.05;109380;1274;22430;-69
2022/08/25 01:25:46;;;;;;;10.00;4.60;;;;;;;19.70;53.93;99967.77;109495;1273;23282;-69
2022/08/25 01:28:13;;;;;;;9.10;3.80;;;;;;;19.65;54.03;99968.98;109340;1274;23211;-69
2022/08/25 01:30:40;;;;;;;11.10;3.80;;;;;;;19.56;54.67;99966.94;109439;1274;23645;-69
2022/08/25 01:33:08;;;;;;;12.10;3.50;;;;;;;19.47;55.13;99967.44;109284;1274;138567;-69
2022/08/25 01:35:35;;;;;;;8.10;3.70;;;;;;;19.34;55.61;99969.70;109396;1273;22471;-69
2022/08/25 01:38:02;;;;;;;11.20;3.80;;;;;;;19.24;55.88;99965.64;109341;1274;138060;-69
2022/08/25 01:40:30;;;;;;;10.30;4.40;;;;;;;19.17;55.76;99967.04;109242;1276;23270;-69
2022/08/25 01:43:10;;;;;;;10.40;4.40;;;;;;;19.14;55.69;99965.51;109447;1274;22404;-69
2022/08/25 01:45:38;;;;;;;14.10;5.20;;;;;;;19.16;55.57;99965.30;108421;1274;138670;-68
2022/08/25 01:48:06;;;;;;;13.80;5.30;;;;;;;19.19;55.80;99966.52;105012;1274;26179;-68
2022/08/25 01:50:33;;;;;;;8.20;4.00;;;;;;;19.23;55.81;99967.77;104803;1274;138535;-68
2022/08/25 01:53:07;;;;;;;11.50;4.80;;;;;;;19.26;55.72;99969.69;109452;1273;22482;-69
2022/08/25 01:55:50;;;;;;;10.30;4.90;;;;;;;19.28;55.94;99969.60;109261;1274;138343;-69
2022/08/25 01:58:28;;;;;;;9.20;4.30;;;;;;;19.30;56.04;99971.13;109458;1273;22427;-68
2022/08/25 02:00:56;;;;;;;8.90;4.30;;;;;;;19.31;56.11;99969.29;109378;1273;22464;-68
2022/08/25 02:03:23;;;;;;;19.50;5.00;;;;;;;19.31;56.44;99969.39;109210;1273;138726;-70
2022/08/25 02:05:52;;;;;;;11.50;4.50;;;;;;;19.30;56.50;99968.23;109461;1273;22467;-70
2022/08/25 02:08:19;;;;;;;10.20;4.80;;;;;;;19.30;56.55;99969.02;109325;1273;139136;-69
2022/08/25 02:10:45;;;;;;;8.70;4.60;;;;;;;19.30;56.80;99967.42;109468;1273;23345;-69
2022/08/25 02:13:12;;;;;;;17.00;4.30;;;;;;;19.28;56.91;99969.98;109359;1274;22393;-69
2022/08/25 02:15:45;;;;;;;8.60;4.70;;;;;;;19.27;56.98;99973.05;109224;1274;138477;-69
2022/08/25 02:18:11;;;;;;;11.20;5.00;;;;;;;19.22;57.38;99976.06;109353;1273;22416;-69
2022/08/25 02:20:38;;;;;;;11.40;4.60;;;;;;;19.17;57.61;99979.33;109347;1273;138614;-70
2022/08/25 02:23:05;;;;;;;12.70;4.10;;;;;;;19.13;57.78;99973.36;109431;1274;23229;-70
2022/08/25 02:25:32;;;;;;;13.50;5.30;;;;;;;19.10;57.99;99973.95;109273;1273;139351;-70
2022/08/25 02:27:59;;;;;;;11.70;4.90;;;;;;;19.07;58.07;99974.73;109366;1274;22439;-69
2022/08/25 02:30:26;;;;;;;8.50;4.90;;;;;;;19.06;58.15;99973.69;109437;1274;22430;-70
2022/08/25 02:32:53;;;;;;;9.70;4.90;;;;;;;19.04;58.35;99975.07;109312;1274;137334;-70
2022/08/25 02:35:20;;;;;;;13.80;5.10;;;;;;;19.00;58.44;99975.67;109441;1273;22416;-69
2022/08/25 02:37:47;;;;;;;9.60;4.60;;;;;;;18.96;58.58;99981.48;109366;1274;139277;-70
2022/08/25 02:40:13;;;;;;;7.60;4.80;;;;;;;18.92;58.89;99979.40;109313;1274;22450;-70
2022/08/25 02:42:40;;;;;;;11.00;5.20;;;;;;;18.87;59.06;99975.03;109453;1273;23147;-70
2022/08/25 02:45:08;;;;;;;11.20;4.80;;;;;;;18.83;59.24;99971.06;109334;1274;138850;-69
2022/08/25 02:47:36;;;;;;;8.20;4.50;;;;;;;18.79;59.29;99970.68;109422;1274;23256;-71
2022/08/25 02:50:04;;;;;;;8.00;4.80;;;;;;;18.76;59.32;99968.02;109343;1272;138700;-71
2022/08/25 02:52:31;;;;;;;15.20;4.80;;;;;;;18.76;59.25;99969.08;109262;1274;23428;-70
2022/08/25 02:54:58;;;;;;;12.80;4.70;;;;;;;18.76;59.32;99967.83;109413;1273;23125;-70
2022/08/25 02:57:24;;;;;;;11.10;4.80;;;;;;;18.75;59.31;99970.33;109244;1274;138705;-70
2022/08/25 02:59:51;;;;;;;11.70;4.70;;;;;;;18.74;59.35;99972.61;109400;1274;22435;-71
2022/08/25 03:02:18;;;;;;;15.40;5.90;;;;;;;18.72;59.32;99972.58;109311;1274;138197;-70
2022/08/25 03:04:45;;;;;;;14.50;5.80;;;;;;;18.70;59.33;99971.06;109481;1273;23310;-70
2022/08/25 03:07:12;;;;;;;10.30;5.20;;;;;;;18.68;59.37;99975.72;109467;1274;22450;-69
2022/08/25 03:09:38;;;;;;;10.60;4.90;;;;;;;18.67;59.46;99976.52;109320;1274;138464;-70
2022/08/25 03:12:05;;;;;;;9.30;4.50;;;;;;;18.65;59.43;99980.51;109449;1274;22414;-70
2022/08/25 03:14:32;;;;;;;11.90;5.20;;;;;;;18.63;59.44;99976.77;109313;1274;137521;-70
2022/08/25 03:16:59;;;;;;;15.00;5.00;;;;;;;18.62;59.51;99976.43;109459;1274;22250;-70
2022/08/25 03:19:26;;;;;;;17.10;5.20;;;;;;;18.61;59.53;99974.38;109314;1274;139269;-69
2022/08/25 03:21:55;;;;;;;12.30;5.20;;;;;;;18.60;59.61;99974.86;109436;1274;22449;-70
2022/08/25 03:24:22;;;;;;;8.00;4.70;;;;;;;18.60;59.80;99975.15;109438;1274;22548;-70
2022/08/25 03:26:52;;;;;;;10.10;5.00;;;;;;;18.59;59.78;99974.66;109331;1274;138593;-70
2022/08/25 03:29:23;;;;;;;10.30;4.70;;;;;;;18.60;59.81;99979.02;109448;1273;23333;-70
2022/08/25 03:31:51;;;;;;;16.10;5.30;;;;;;;18.60;59.77;99981.72;109326;1274;138928;-70
2022/08/25 03:34:18;;;;;;;13.40;4.90;;;;;;;18.60;59.93;99978.30;109343;1274;22561;-69
2022/08/25 03:36:46;;;;;;;12.70;5.40;;;;;;;18.60;59.88;99979.40;109372;1274;22449;-69
2022/08/25 03:39:14;;;;;;;11.20;4.80;;;;;;;18.61;59.97;99976.34;109243;1274;139679;-69
2022/08/25 03:41:41;;;;;;;10.60;5.00;;;;;;;18.63;60.01;99974.80;109274;1276;23287;-69
2022/08/25 03:44:08;;;;;;;10.10;4.90;;;;;;;18.65;60.05;99973.93;109166;1276;139541;-69
2022/08/25 03:46:43;;;;;;;12.70;5.30;;;;;;;18.69;60.21;99975.94;109301;1274;22548;-69
2022/08/25 03:49:15;;;;;;;8.20;4.80;;;;;;;18.72;60.25;99974.95;109261;1276;22469;-68
2022/08/25 03:51:45;;;;;;;15.20;6.20;;;;;;;18.76;60.31;99972.73;109289;1274;138180;-70
2022/08/25 03:54:14;;;;;;;9.80;4.70;;;;;;;18.80;60.34;99968.56;109446;1273;23483;-69
2022/08/25 03:56:41;;;;;;;12.70;5.50;;;;;;;18.85;60.45;99971.09;109325;1274;137734;-68
2022/08/25 03:59:08;;;;;;;12.30;5.30;;;;;;;18.89;60.25;99969.77;109451;1274;23045;-69
2022/08/25 04:01:36;;;;;;;10.20;5.30;;;;;;;18.92;60.40;99968.86;109295;1274;139296;-69
2022/08/25 04:04:03;;;;;;;13.40;5.30;;;;;;;18.97;60.58;99963.43;109417;1274;22596;-67
2022/08/25 04:06:30;;;;;;;8.30;5.00;;;;;;;19.02;60.50;99962.58;109454;1273;23329;-68
2022/08/25 04:08:57;;;;;;;13.10;5.80;;;;;;;19.08;60.51;99960.80;109175;1274;138475;-68
2022/08/25 04:11:25;;;;;;;17.00;6.20;;;;;;;19.15;60.42;99964.55;109438;1274;22464;-67
2022/08/25 04:13:52;;;;;;;12.20;5.50;;;;;;;19.22;60.35;99961.20;109332;1273;138629;-68
2022/08/25 04:16:20;;;;;;;8.10;4.70;;;;;;;19.30;60.28;99955.70;109419;1274;23099;-68
2022/08/25 04:18:48;;;;;;;9.90;5.20;;;;;;;19.37;59.97;99949.20;109434;1274;22499;-68
2022/08/25 04:21:16;;;;;;;12.80;5.50;;;;;;;19.46;60.06;99949.93;109303;1274;137778;-68
2022/08/25 04:23:43;;;;;;;14.10;5.40;;;;;;;19.54;60.03;99953.93;109425;1274;22271;-68
2022/08/25 04:26:11;;;;;;;8.90;5.80;;;;;;;19.62;59.67;99945.27;107523;1273;138646;-69
2022/08/25 04:28:38;;;;;;;9.50;5.20;;;;;;;19.69;59.58;99946.16;105028;1274;22571;-69
2022/08/25 04:31:09;;;;;;;14.50;5.80;;;;;;;19.78;59.56;99941.27;105023;1274;24947;-69
2022/08/25 04:33:36;;;;;;;12.40;5.50;;;;;;;19.89;59.19;99934.73;104969;1274;138906;-69
2022/08/25 04:36:05;;;;;;;9.50;5.70;;;;;;;20.04;58.86;99937.95;104928;1274;26298;-69
2022/08/25 04:38:38;;;;;;;9.40;4.90;;;;;;;20.22;58.65;99934.66;109161;1274;137533;-70
2022/08/25 04:41:05;;;;;;;9.60;5.80;;;;;;;20.38;58.29;99931.26;109338;1273;22471;-70
2022/08/25 04:43:32;;;;;;;13.90;6.50;;;;;;;20.57;57.51;99933.36;109314;1273;138385;-69
2022/08/25 04:46:13;;;;;;;14.40;5.80;;;;;;;20.77;57.04;99927.55;109369;1274;23545;-67
2022/08/25 04:48:46;;;;;;;9.90;5.60;;;;;;;20.98;56.44;99930.06;109294;1273;23347;-72
2022/08/25 04:51:15;;;;;;;11.60;5.90;;;;;;;21.16;56.09;99933.75;109323;1273;138737;-69
2022/08/25 04:53:42;;;;;;;9.50;5.50;;;;;;;21.35;55.59;99931.85;109260;1274;23259;-69
2022/08/25 04:56:11;;;;;;;14.10;5.70;;;;;;;21.57;54.95;99927.76;109224;1273;138040;-70
2022/08/25 04:58:39;;;;;;;10.10;5.50;;;;;;;21.81;54.35;99927.11;109326;1273;22485;-68
2022/08/25 05:01:08;;;;;;;11.10;5.10;;;;;;;22.04;53.53;99922.21;109280;1273;22543;-69
2022/08/25 05:03:35;;;;;;;9.40;6.00;;;;;;;22.26;53.06;99923.20;109291;1273;137921;-70
2022/08/25 05:06:03;;;;;;;8.20;5.50;;;;;;;22.48;52.10;99921.59;109149;1274;22461;-68
2022/08/25 05:08:30;;;;;;;12.40;5.40;;;;;;;22.68;51.43;99923.05;109220;1273;140273;-69
2022/08/25 05:10:57;;;;;;;14.90;6.10;;;;;;;22.85;50.72;99918.45;109358;1273;22566;-69
2022/08/25 05:13:24;;;;;;;12.80;5.40;;;;;;;22.96;49.81;99916.75;109154;1274;23239;-69
2022/08/25 05:15:56;;;;;;;10.90;6.20;;;;;;;23.05;49.72;99918.73;109442;1273;22688;-69
2022/08/25 05:18:28;;;;;;;13.80;6.40;;;;;;;23.15;49.57;99915.69;109414;1274;23524;-69
2022/08/25 05:20:55;;;;;;;16.50;5.60;;;;;;;23.29;49.52;99914.62;109305;1273;138820;-67
2022/08/25 05:23:22;;;;;;;14.50;6.00;;;;;;;23.47;48.99;99913.54;109283;1276;23525;-68
2022/08/25 05:25:50;;;;;;;9.60;6.00;;;;;;;23.63;48.32;99908.17;109316;1273;138539;-68
2022/08/25 05:28:18;;;;;;;12.00;5.90;;;;;;;23.78;47.62;99907.38;109372;1273;22259;-67
2022/08/25 05:30:48;;;;;;;10.60;5.70;;;;;;;23.89;47.15;99904.85;109483;1272;23707;-67
2022/08/25 05:33:15;;;;;;;11.70;6.00;;;;;;;23.99;47.13;99909.05;109352;1272;138121;-67
2022/08/25 05:35:42;;;;;;;10.30;5.90;;;;;;;24.09;46.86;99907.48;108315;1274;25460;-67
2022/08/25 05:38:09;;;;;;;10.70;5.60;;;;;;;24.21;46.41;99905.10;104834;1273;138517;-69
2022/08/25 05:40:41;;;;;;;11.10;6.00;;;;;;;24.33;46.54;99903.51;109435;1273;22473;-67
2022/08/25 05:43:08;;;;;;;9.90;5.60;;;;;;;24.48;46.02;99907.88;109426;1273;23567;-68
2022/08/25 05:45:35;;;;;;;13.70;6.30;;;;;;;24.58;45.83;99906.64;109315;1274;137343;-68
2022/08/25 05:48:02;;;;;;;15.20;6.50;;;;;;;24.70;45.56;99910.59;109406;1274;23100;-68
2022/08/25 05:50:29;;;;;;;7.70;5.20;;;;;;;24.82;45.36;99908.63;109310;1273;137769;-68
2022/08/25 05:52:55;;;;;;;10.70;5.50;;;;;;;24.86;44.74;99909.89;109353;1273;23146;-68
2022/08/25 05:55:22;;;;;;;14.40;7.50;;;;;;;24.87;44.70;99908.25;109431;1274;22446;-69
2022/08/25 05:57:49;;;;;;;8.60;5.80;;;;;;;24.88;44.83;99902.17;109301;1273;137704;-69
2022/08/25 06:00:16;;;;;;;9.50;6.30;;;;;;;24.88;44.37;99906.31;109415;1273;22468;-68
2022/08/25 06:02:45;;;;;;;13.40;6.00;;;;;;;24.84;44.30;99904.66;109230;1273;140053;-69
2022/08/25 06:05:20;;;;;;;23.10;7.70;;;;;;;24.79;44.20;99904.32;109332;1273;22558;-67
2022/08/25 06:07:49;;;;;;;12.90;6.50;;;;;;;24.72;44.34;99904.92;109246;1273;139295;-69
2022/08/25 06:10:16;;;;;;;9.50;5.60;;;;;;;24.62;44.50;99907.85;109352;1274;22439;-68
2022/08/25 06:12:43;;;;;;;11.40;6.40;;;;;;;24.54;44.94;99902.27;109324;1274;22525;-68
2022/08/25 06:15:15;;;;;;;10.60;6.70;;;;;;;24.49;44.90;99904.04;109311;1273;137985;-68
2022/08/25 06:17:42;;;;;;;21.70;7.40;;;;;;;24.46;45.10;99902.95;109266;1271;22620;-68
2022/08/25 06:20:11;;;;;;;11.50;6.60;;;;;;;24.44;45.15;99903.48;109267;1273;138302;-68
2022/08/25 06:22:39;;;;;;;14.90;6.90;;;;;;;24.39;45.20;99897.58;109352;1273;22498;-68
2022/08/25 06:25:08;;;;;;;24.70;7.10;;;;;;;24.37;44.70;99901.83;109225;1274;22499;-68
2022/08/25 06:27:35;;;;;;;12.00;6.50;;;;;;;24.34;45.23;99901.29;109223;1273;137526;-68
2022/08/25 06:30:03;;;;;;;13.20;5.80;;;;;;;24.33;44.92;99904.21;109471;1273;22416;-68
2022/08/25 06:32:38;;;;;;;10.40;6.20;;;;;;;24.31;44.67;99910.18;109259;1273;139047;-69
2022/08/25 06:35:07;;;;;;;14.60;6.90;;;;;;;24.30;45.22;99914.21;109344;1273;22466;-68
2022/08/25 06:37:35;;;;;;;11.70;6.50;;;;;;;24.32;45.45;99917.48;109263;1273;138245;-68
2022/08/25 06:40:03;;;;;;;15.70;6.60;;;;;;;24.36;45.16;99909.99;109396;1273;23129;-68
2022/08/25 06:42:30;;;;;;;12.20;5.30;;;;;;;24.38;45.33;99911.71;109430;1273;22763;-68
2022/08/25 06:44:56;;;;;;;16.80;6.20;;;;;;;24.39;45.69;99915.58;109297;1273;137488;-68
2022/08/25 06:47:23;;;;;;;24.80;6.90;;;;;;;24.42;45.75;99918.47;109395;1273;22479;-68
2022/08/25 06:49:50;;;;;;;19.40;6.60;;;;;;;24.45;45.44;99915.54;109266;1273;139523;-68
2022/08/25 06:52:17;;;;;;;10.00;6.30;;;;;;;24.47;44.93;99914.70;109323;1273;22468;-68
2022/08/25 06:54:44;;;;;;;14.90;6.20;;;;;;;24.51;44.28;99915.48;109381;1273;22425;-68
2022/08/25 06:57:14;;;;;;;14.00;6.40;;;;;;;24.53;43.49;99914.59;109244;1273;138727;-68
2022/08/25 06:59:41;;;;;;;15.80;6.10;;;;;;;24.54;43.47;99914.89;109441;1273;23580;-68
2022/08/25 07:02:08;;;;;;;19.00;5.40;;;;;;;24.56;43.73;99911.04;109292;1274;138631;-68
2022/08/25 07:04:35;;;;;;;14.30;6.10;;;;;;;24.58;44.23;99916.86;109411;1273;22410;-68
2022/08/25 07:07:02;;;;;;;24.40;8.20;;;;;;;24.61;43.50;99915.63;109397;1273;23354;-68
2022/08/25 07:09:29;;;;;;;24.90;7.90;;;;;;;24.64;43.28;99917.80;109287;1273;137958;-68
2022/08/25 07:11:56;;;;;;;18.70;7.10;;;;;;;24.68;43.69;99914.34;109431;1273;22555;-68
2022/08/25 07:14:23;;;;;;;14.60;6.40;;;;;;;24.72;44.09;99912.01;109261;1273;138398;-67
2022/08/25 07:16:49;;;;;;;14.40;6.70;;;;;;;24.79;43.21;99912.73;109371;1273;23160;-68
2022/08/25 07:19:19;;;;;;;16.20;5.70;;;;;;;24.83;42.84;99910.05;109384;1273;22487;-68
2022/08/25 07:21:49;;;;;;;13.30;5.90;;;;;;;24.88;42.79;99912.30;109248;1273;138417;-68
2022/08/25 07:24:16;;;;;;;13.70;5.90;;;;;;;24.93;43.27;99909.85;109270;1274;22432;-68
2022/08/25 07:26:45;;;;;;;9.60;5.80;;;;;;;24.98;43.03;99907.96;109265;1273;137564;-68
2022/08/25 07:29:20;;;;;;;21.20;6.60;;;;;;;25.01;42.90;99903.46;109418;1273;22464;-68
2022/08/25 07:31:58;;;;;;;25.80;6.70;;;;;;;25.07;42.30;99904.40;109371;1273;138927;-68
2022/08/25 07:37:17;;;;;;;12.20;6.70;;;;;;;25.16;42.39;99891.88;109386;1273;22324;-68
2022/08/25 07:40:01;;;;;;;20.00;5.90;;;;;;;25.23;41.63;99894.19;107711;1276;22563;-68
2022/08/25 07:42:30;;;;;;;23.90;7.00;;;;;;;25.32;41.90;99891.70;105027;1274;22567;-67
2022/08/25 07:44:57;;;;;;;12.00;6.10;;;;;;;25.40;41.91;99892.20;104892;1274;138706;-67
2022/08/25 07:47:24;;;;;;;15.10;6.70;;;;;;;25.48;41.97;99889.42;104951;1274;25414;-67
2022/08/25 07:49:51;;;;;;;13.50;6.70;;;;;;;25.54;42.31;99882.67;104852;1274;137689;-67
2022/08/25 07:52:18;;;;;;;15.30;5.80;;;;;;;25.58;41.02;99879.86;104961;1274;22645;-67
2022/08/25 07:54:45;;;;;;;9.40;5.40;;;;;;;25.61;40.57;99881.27;104995;1274;22571;-67
2022/08/25 07:57:12;;;;;;;13.10;5.10;;;;;;;25.64;40.61;99875.58;104971;1273;137859;-67
2022/08/25 07:59:40;;;;;;;15.80;6.40;;;;;;;25.70;40.78;99875.73;105076;1273;22716;-67
2022/08/25 08:02:08;;;;;;;9.70;5.20;;;;;;;25.77;41.27;99875.18;105058;1273;139720;-67
2022/08/25 08:04:47;;;;;;;18.50;6.50;;;;;;;25.85;41.06;99874.60;109412;1273;23721;-67
2022/08/25 08:07:19;;;;;;;13.10;4.90;;;;;;;25.92;40.81;99871.48;109417;1273;22432;-67
2022/08/25 08:09:46;;;;;;;14.20;4.80;;;;;;;26.00;40.21;99867.57;109292;1273;137548;-67
2022/08/25 08:12:26;;;;;;;15.70;5.20;;;;;;;26.09;40.09;99865.48;109404;1273;22470;-67
2022/08/25 08:14:53;;;;;;;11.10;4.80;;;;;;;26.19;39.86;99864.58;109208;1273;139182;-67
2022/08/25 08:17:20;;;;;;;20.30;6.70;;;;;;;26.27;39.48;99860.17;109384;1273;22453;-67
2022/08/25 08:19:47;;;;;;;27.70;6.30;;;;;;;26.35;40.02;99862.85;109263;1273;138268;-67
2022/08/25 08:22:14;;;;;;;16.70;5.80;;;;;;;26.45;40.04;99857.45;109431;1274;22431;-68
2022/08/25 08:24:43;;;;;;;7.60;4.90;;;;;;;26.52;39.89;99856.05;109444;1273;22607;-68
2022/08/25 08:27:22;;;;;;;27.30;6.00;;;;;;;26.57;39.85;99853.23;109303;1273;138486;-68
2022/08/25 08:29:49;;;;;;;10.80;5.00;;;;;;;26.62;39.86;99854.67;109365;1273;23229;-68
2022/08/25 08:32:16;;;;;;;11.70;5.10;;;;;;;26.68;39.54;99856.59;109342;1273;138837;-69
2022/08/25 08:34:45;;;;;;;10.70;5.30;;;;;;;26.74;39.49;99851.22;109396;1273;22250;-68
2022/08/25 08:37:17;;;;;;;14.90;5.50;;;;;;;26.78;39.12;99849.11;109339;1275;23093;-69
2022/08/25 08:39:45;;;;;;;13.90;5.90;;;;;;;26.81;39.30;99845.91;109251;1273;139832;-67
2022/08/25 08:42:18;;;;;;;9.00;5.30;;;;;;;26.86;39.69;99845.80;109382;1273;23215;-67
2022/08/25 08:45:14;;;;;;;11.80;5.90;;;;;;;26.92;39.84;99844.39;109288;1274;138024;-68
2022/08/25 08:47:49;;;;;;;8.60;6.00;;;;;;;26.98;39.46;99840.08;109399;1273;22508;-67
2022/08/25 08:50:22;;;;;;;9.40;4.70;;;;;;;27.01;39.29;99835.19;109326;1273;137776;-66
2022/08/25 08:53:08;;;;;;;8.80;5.50;;;;;;;27.06;39.04;99835.41;109444;1273;23615;-67
2022/08/25 08:55:43;;;;;;;11.60;5.30;;;;;;;27.14;39.09;99828.23;109181;1273;137520;-68
2022/08/25 08:58:43;;;;;;;11.20;5.30;;;;;;;27.23;38.88;99832.02;109376;1273;22613;-68
2022/08/25 09:01:12;;;;;;;6.50;5.00;;;;;;;27.32;38.58;99830.92;109367;1274;22447;-68
2022/08/25 09:03:46;;;;;;;8.70;5.30;;;;;;;27.36;38.40;99829.54;109261;1273;138744;-68
2022/08/25 09:06:30;;;;;;;9.00;5.00;;;;;;;27.42;37.40;99828.08;109186;1274;23340;-68
2022/08/25 09:09:00;;;;;;;8.80;4.50;;;;;;;27.53;36.56;99822.98;109176;1274;138183;-68
2022/08/25 09:11:32;;;;;;;8.20;4.70;;;;;;;27.67;36.20;99825.58;109203;1274;22404;-67
2022/08/25 09:14:06;;;;;;;8.40;4.70;;;;;;;27.79;36.18;99824.41;109194;1274;138269;-67
2022/08/25 09:16:57;;;;;;;11.50;4.80;;;;;;;27.92;36.42;99826.37;109366;1273;23605;-68
2022/08/25 09:22:22;;;;;;;20.80;5.00;;;;;;;28.18;36.22;99822.85;101891;1309;545323;-66
2022/08/25 09:25:29;;;;;;;11.90;4.40;;;;;;;28.29;33.96;99817.50;104163;1287;25356;-68
2022/08/25 09:28:37;;;;;;;13.20;4.20;;;;;;;28.40;33.56;99811.16;104158;1287;24325;-69
2022/08/25 09:31:25;;;;;;;7.80;4.00;;;;;;;28.44;34.52;99806.75;108485;1286;22524;-68
2022/08/25 09:33:56;;;;;;;10.70;4.10;;;;;;;28.47;33.77;99812.90;108062;1287;137675;-68
2022/08/25 09:36:23;;;;;;;7.30;3.60;;;;;;;28.55;32.94;99811.45;107046;1287;1563897;-69
2022/08/25 09:38:50;;;;;;;12.20;4.10;;;;;;;28.64;33.53;99810.41;108241;1287;138448;-69
2022/08/25 09:41:33;;;;;;;12.90;4.70;;;;;;;28.73;33.31;99808.57;108315;1286;22534;-68
2022/08/25 09:44:01;;;;;;;7.60;3.40;;;;;;;28.82;33.06;99805.65;108184;1286;139293;-70
2022/08/25 09:46:28;;;;;;;6.90;3.40;;;;;;;28.90;32.52;99802.27;108269;1286;22685;-70
2022/08/25 09:48:58;;;;;;;9.00;3.80;;;;;;;28.97;32.39;99798.94;108414;1287;24788;-69
2022/08/25 09:51:29;;;;;;;10.10;3.40;;;;;;;29.02;32.28;99787.55;108180;1286;138116;-68
2022/08/25 09:54:11;;;;;;;10.20;5.00;;;;;;;29.05;32.51;99786.09;108322;1287;22598;-70
2022/08/25 09:56:48;;;;;;;8.80;4.10;;;;;;;29.09;32.95;99786.08;108162;1286;139361;-70
2022/08/25 09:59:32;;;;;;;7.10;3.60;;;;;;;29.17;32.02;99785.08;108152;1287;22467;-70
2022/08/25 10:02:20;;;;;;;5.80;3.40;;;;;;;29.25;30.88;99776.86;108256;1287;138927;-70
2022/08/25 10:04:47;;;;;;;4.60;3.20;;;;;;;29.30;30.66;99772.93;108211;1287;22512;-69
2022/08/25 10:07:25;;;;;;;6.20;2.90;;;;;;;29.35;30.64;99776.78;108309;1286;22469;-70
2022/08/25 10:09:54;;;;;;;6.50;3.10;;;;;;;29.41;30.11;99769.05;108145;1287;137713;-70
2022/08/25 10:12:42;;;;;;;15.70;3.50;;;;;;;29.47;29.53;99763.02;108112;1287;22445;-69
2022/08/25 10:15:19;;;;;;;6.80;3.30;;;;;;;29.57;28.61;99760.45;108151;1287;137510;-69
2022/08/25 10:18:17;;;;;;;13.90;3.60;;;;;;;29.68;29.09;99756.42;108228;1287;23739;-69
2022/08/25 10:21:04;;;;;;;11.50;2.80;;;;;;;29.74;29.72;99753.37;108048;1287;137680;-68
2022/08/25 10:24:01;;;;;;;8.90;3.30;;;;;;;29.79;29.39;99752.09;108223;1287;22432;-67
2022/08/25 10:26:33;;;;;;;4.80;2.70;;;;;;;29.85;28.36;99746.08;108134;1286;138429;-69
2022/08/25 10:29:13;;;;;;;20.00;3.80;;;;;;;29.91;28.68;99750.95;108366;1285;22408;-69
2022/08/25 10:31:47;;;;;;;10.20;3.00;;;;;;;29.96;27.62;99744.21;108136;1287;138860;-70
2022/08/25 10:34:32;;;;;;;17.50;2.50;;;;;;;29.99;27.18;99748.20;108310;1286;23596;-68
2022/08/25 10:37:05;;;;;;;15.60;2.30;;;;;;;30.06;27.14;99744.48;108243;1287;22463;-69
2022/08/25 10:39:55;;;;;;;18.60;3.60;;;;;;;30.19;26.16;99748.10;108071;1286;138474;-67
2022/08/25 10:42:33;;;;;;;12.90;3.80;;;;;;;30.32;25.23;99748.65;108184;1287;22474;-67
2022/08/25 10:48:29;;;;;;;9.50;3.20;;;;;;;30.43;25.88;99742.35;109460;1274;22477;-69
2022/08/25 10:51:26;;;;;;;9.30;2.90;;;;;;;30.45;25.82;99737.94;109222;1277;137970;-68
2022/08/25 10:54:25;;;;;;;5.30;2.60;;;;;;;30.47;25.65;99731.29;109263;1276;23206;-68
2022/08/25 10:57:28;;;;;;;7.40;3.10;;;;;;;30.49;26.04;99721.91;109045;1277;137245;-68
2022/08/25 11:00:10;;;;;;;14.00;3.00;;;;;;;30.50;26.42;99728.77;108606;1281;22529;-68
2022/08/25 11:03:28;;;;;;;6.30;2.90;;;;;;;30.54;26.28;99729.48;108833;1280;138964;-69
2022/08/25 11:06:12;;;;;;;21.20;4.90;;;;;;;30.56;25.78;99718.65;108142;1287;22693;-68
2022/08/25 11:08:43;;;;;;;7.30;3.20;;;;;;;30.56;26.65;99722.59;107762;1287;139229;-68
2022/08/25 11:11:43;;;;;;;6.10;2.80;;;;;;;30.58;26.18;99722.35;107587;1288;22503;-68
2022/08/25 11:14:21;;;;;;;4.10;3.00;;;;;;;30.60;26.38;99717.70;107932;1286;138269;-67
2022/08/25 11:17:06;;;;;;;4.40;2.80;;;;;;;30.61;26.00;99718.84;107845;1287;22570;-69
2022/08/25 11:19:42;;;;;;;6.60;3.10;;;;;;;30.62;26.11;99709.77;108005;1287;22527;-69
2022/08/25 11:22:28;;;;;;;;;;;;;;;30.62;26.66;99713.63;108064;1287;23268;-69
2022/08/25 11:24:55;;;;;;;18.90;4.00;;;;;;;30.63;26.32;99711.86;108189;1287;22594;-69
2022/08/25 11:27:34;;;;;;;6.00;2.60;;;;;;;30.65;26.53;99712.36;108054;1287;138260;-68
2022/08/25 11:30:10;;;;;;;18.60;3.40;;;;;;;30.66;26.82;99713.51;107989;1287;22480;-68
2022/08/25 11:32:37;;;;;;;3.40;2.50;;;;;;;30.65;26.75;99708.91;107377;1287;137250;-69
2022/08/25 11:35:08;;;;;;;7.00;2.80;;;;;;;30.64;26.65;99705.27;103925;1287;22755;-67
2022/08/25 11:38:03;;;;;;;25.80;4.30;;;;;;;30.64;26.23;99707.52;103875;1283;137403;-68
2022/08/25 11:41:00;;;;;;;7.00;2.70;;;;;;;30.60;26.09;99704.85;108674;1282;23223;-70
2022/08/25 11:44:04;;;;;;;5.90;2.90;;;;;;;30.55;26.59;99703.21;109217;1276;22564;-68
2022/08/25 11:46:44;;;;;;;3.30;2.50;;;;;;;30.53;26.56;99697.38;109216;1275;23539;-66